createdAt,value
2023-04-17T00:02:26.601Z,61.38
2023-04-17T00:04:54.226Z,53.67
2023-04-17T00:07:22.399Z,57.45
2023-04-17T00:09:48.846Z,61.17
2023-04-17T00:12:15.502Z,59.22
2023-04-17T00:14:41.893Z,54.67
2023-04-17T00:17:08.212Z,48.38
2023-04-17T00:19:34.598Z,53.20
2023-04-17T00:22:01.031Z,49.63
2023-04-17T00:24:27.448Z,49.05
2023-04-17T00:26:53.819Z,42.35
2023-04-17T00:29:20.357Z,45.65
2023-04-17T00:31:46.777Z,38.13
2023-04-17T00:34:13.151Z,45.78
2023-04-17T00:36:39.968Z,39.95
2023-04-17T00:39:06.314Z,36.85
2023-04-17T00:41:32.787Z,39.88
2023-04-17T00:43:59.148Z,52.75
2023-04-17T00:46:25.683Z,42.83
2023-04-17T00:48:52.398Z,46.33
2023-04-17T00:51:18.776Z,48.88
2023-04-17T00:53:45.699Z,45.15
2023-04-17T00:56:12.122Z,38.88
2023-04-17T00:58:38.576Z,41.35
2023-04-17T01:01:05.951Z,28.27
2023-04-17T01:03:33.011Z,31.10
2023-04-17T01:06:00.045Z,29.52
2023-04-17T01:08:26.601Z,30.55
2023-04-17T01:10:52.994Z,31.92
2023-04-17T01:13:19.792Z,27.58
2023-04-17T01:15:47.009Z,32.75
2023-04-17T01:18:13.526Z,26.40
2023-04-17T01:20:39.934Z,24.17
2023-04-17T01:23:06.324Z,21.92
2023-04-17T01:25:33.159Z,29.15
2023-04-17T01:27:59.624Z,28.50
2023-04-17T01:30:28.204Z,28.27
2023-04-17T01:33:02.067Z,26.05
2023-04-17T01:35:28.551Z,29.38
2023-04-17T01:37:55.622Z,26.23
2023-04-17T01:40:22.057Z,26.00
2023-04-17T01:42:48.467Z,23.95
2023-04-17T01:45:15.135Z,24.42
2023-04-17T01:47:41.793Z,22.20
2023-04-17T01:50:11.147Z,28.08
2023-04-17T01:52:37.620Z,27.20
2023-04-17T01:55:04.170Z,26.95
2023-04-17T01:57:31.333Z,25.88
2023-04-17T01:59:57.689Z,24.25
2023-04-17T02:02:24.516Z,27.38
2023-04-17T02:04:50.975Z,30.27
2023-04-17T02:07:17.412Z,34.88
2023-04-17T02:09:43.727Z,28.50
2023-04-17T02:12:10.304Z,27.58
2023-04-17T02:14:36.633Z,30.30
2023-04-17T02:17:03.384Z,31.70
2023-04-17T02:19:32.464Z,31.90
2023-04-17T02:22:02.302Z,26.95
2023-04-17T02:24:30.430Z,26.83
2023-04-17T02:26:59.951Z,24.85
2023-04-17T02:29:26.263Z,25.42
2023-04-17T02:31:53.230Z,26.38
2023-04-17T02:34:19.700Z,24.77
2023-04-17T02:36:49.971Z,26.35
2023-04-17T02:39:18.224Z,25.42
2023-04-17T02:41:44.846Z,26.75
2023-04-17T02:44:11.308Z,31.10
2023-04-17T02:46:38.004Z,30.40
2023-04-17T02:49:04.614Z,30.85
2023-04-17T02:51:30.938Z,33.13
2023-04-17T02:53:57.302Z,32.72
2023-04-17T02:56:23.748Z,27.83
2023-04-17T02:58:50.099Z,33.63
2023-04-17T03:01:16.558Z,30.23
2023-04-17T03:03:45.410Z,30.58
2023-04-17T03:06:14.001Z,28.52
2023-04-17T03:08:40.339Z,35.15
2023-04-17T03:11:06.746Z,38.20
2023-04-17T03:13:39.200Z,35.78
2023-04-17T03:16:06.102Z,29.85
2023-04-17T03:18:35.926Z,36.40
2023-04-17T03:21:02.370Z,34.83
2023-04-17T03:23:28.767Z,38.60
2023-04-17T03:25:55.888Z,36.33
2023-04-17T03:28:23.764Z,41.13
2023-04-17T03:30:51.145Z,36.40
2023-04-17T03:33:18.062Z,42.03
2023-04-17T03:35:46.118Z,39.95
2023-04-17T03:38:12.438Z,35.78
2023-04-17T03:40:38.877Z,25.80
2023-04-17T03:43:06.581Z,32.72
2023-04-17T03:45:33.226Z,32.40
2023-04-17T03:48:00.327Z,34.17
2023-04-17T03:50:32.134Z,34.40
2023-04-17T03:52:58.559Z,30.98
2023-04-17T03:55:29.339Z,34.47
2023-04-17T03:57:55.884Z,30.73
2023-04-17T04:00:23.792Z,31.65
2023-04-17T04:02:54.926Z,37.55
2023-04-17T04:05:26.495Z,42.22
2023-04-17T04:07:53.632Z,38.13
2023-04-17T04:10:26.604Z,38.00
2023-04-17T04:12:54.833Z,40.22
2023-04-17T04:15:21.285Z,34.45
2023-04-17T04:17:53.215Z,38.33
2023-04-17T04:20:22.240Z,42.05
2023-04-17T04:22:55.801Z,33.08
2023-04-17T04:25:22.318Z,39.38
2023-04-17T04:28:02.149Z,27.00
2023-04-17T04:30:30.788Z,34.92
2023-04-17T04:33:08.328Z,39.55
2023-04-17T04:35:35.406Z,42.25
2023-04-17T04:38:02.153Z,39.45
2023-04-17T04:40:37.955Z,37.78
2023-04-17T04:43:05.693Z,39.30
2023-04-17T04:45:38.532Z,47.17
2023-04-17T04:48:05.251Z,38.50
2023-04-17T04:50:32.094Z,41.67
2023-04-17T04:52:58.443Z,40.58
2023-04-17T04:55:37.051Z,37.85
2023-04-17T04:58:04.174Z,40.38
2023-04-17T05:00:30.905Z,41.00
2023-04-17T05:02:59.173Z,41.88
2023-04-17T05:05:26.393Z,49.00
2023-04-17T05:07:54.937Z,41.33
2023-04-17T05:10:24.482Z,43.65
2023-04-17T05:12:57.363Z,51.83
2023-04-17T05:15:23.745Z,40.72
2023-04-17T05:17:50.190Z,49.65
2023-04-17T05:20:17.139Z,53.80
2023-04-17T05:22:50.580Z,39.08
2023-04-17T05:25:16.974Z,38.13
2023-04-17T05:27:43.466Z,42.60
2023-04-17T05:30:12.275Z,45.38
2023-04-17T05:32:39.962Z,45.55
2023-04-17T05:35:21.574Z,46.58
2023-04-17T05:37:49.552Z,38.47
2023-04-17T05:40:16.495Z,49.85
2023-04-17T05:42:42.836Z,58.45
2023-04-17T05:45:12.629Z,51.55
2023-04-17T05:47:39.024Z,51.30
2023-04-17T05:50:06.545Z,47.88
2023-04-17T05:52:33.288Z,53.00
2023-04-17T05:55:00.370Z,49.05
2023-04-17T05:57:29.262Z,45.47
2023-04-17T05:59:55.852Z,57.10
2023-04-17T06:02:22.410Z,50.95
2023-04-17T06:04:49.164Z,49.88
2023-04-17T06:07:16.553Z,47.03
2023-04-17T06:09:43.099Z,53.33
2023-04-17T06:12:15.716Z,46.50
2023-04-17T06:14:43.738Z,47.28
2023-04-17T06:17:12.383Z,48.83
2023-04-17T06:19:38.991Z,39.92
2023-04-17T06:22:06.715Z,48.25
2023-04-17T06:24:33.150Z,55.88
2023-04-17T06:26:59.683Z,46.63
2023-04-17T06:29:26.117Z,53.13
2023-04-17T06:31:52.957Z,52.00
2023-04-17T06:34:20.929Z,57.83
2023-04-17T06:36:47.665Z,68.20
2023-04-17T06:39:16.640Z,53.92
2023-04-17T06:41:43.591Z,60.45
2023-04-17T06:44:11.568Z,63.03
2023-04-17T06:46:45.463Z,60.30
2023-04-17T06:49:12.310Z,59.45
2023-04-17T06:51:38.937Z,66.18
2023-04-17T06:54:05.324Z,59.70
2023-04-17T06:56:31.831Z,63.45
2023-04-17T06:58:58.155Z,60.17
2023-04-17T07:01:24.802Z,44.90
2023-04-17T07:03:51.410Z,52.35
2023-04-17T07:06:19.387Z,46.15
2023-04-17T07:08:45.786Z,50.60
2023-04-17T07:11:12.186Z,49.00
2023-04-17T07:13:38.566Z,47.35
2023-04-17T07:16:06.242Z,50.35
2023-04-17T07:18:32.713Z,50.90
2023-04-17T07:20:59.052Z,45.90
2023-04-17T07:23:25.531Z,46.38
2023-04-17T07:25:51.884Z,52.45
2023-04-17T07:28:19.375Z,40.65
2023-04-17T07:30:45.987Z,45.38
2023-04-17T07:33:12.408Z,47.55
2023-04-17T07:35:38.810Z,37.72
2023-04-17T07:38:05.380Z,31.90
2023-04-17T07:40:33.316Z,44.05
2023-04-17T07:42:59.696Z,37.20
2023-04-17T07:45:30.328Z,37.65
2023-04-17T07:47:56.915Z,37.72
2023-04-17T07:50:23.749Z,40.17
2023-04-17T07:52:50.219Z,38.28
2023-04-17T07:55:16.893Z,40.90
2023-04-17T07:57:43.530Z,39.58
2023-04-17T08:00:11.264Z,33.17
2023-04-17T08:02:42.000Z,38.50
2023-04-17T08:05:11.688Z,41.13
2023-04-17T08:07:38.422Z,35.65
2023-04-17T08:10:05.413Z,33.45
2023-04-17T08:12:33.465Z,38.00
2023-04-17T08:15:00.265Z,39.20
2023-04-17T08:17:30.097Z,36.35
2023-04-17T08:19:57.604Z,32.35
2023-04-17T08:22:25.429Z,35.90
2023-04-17T08:24:57.498Z,34.33
2023-04-17T08:27:24.874Z,33.72
2023-04-17T08:29:53.559Z,37.67
2023-04-17T08:32:21.311Z,36.80
2023-04-17T08:34:47.981Z,33.15
2023-04-17T08:37:14.345Z,37.35
2023-04-17T08:39:40.842Z,32.20
2023-04-17T08:42:07.970Z,32.03
2023-04-17T08:44:34.363Z,36.08
2023-04-17T08:47:01.023Z,31.33
2023-04-17T08:49:31.113Z,33.63
2023-04-17T08:51:57.642Z,30.00
2023-04-17T08:54:24.088Z,33.80
2023-04-17T08:56:50.665Z,35.00
2023-04-17T08:59:17.890Z,29.35
2023-04-17T09:02:03.177Z,35.80
2023-04-17T09:04:42.990Z,30.40
2023-04-17T09:07:11.097Z,33.58
2023-04-17T09:09:50.611Z,30.13
2023-04-17T09:12:17.573Z,34.72
2023-04-17T09:14:44.495Z,27.05
2023-04-17T09:17:10.959Z,28.95
2023-04-17T09:19:37.465Z,22.27
2023-04-17T09:22:33.343Z,24.85
2023-04-17T09:25:00.031Z,28.42
2023-04-17T09:27:26.896Z,28.40
2023-04-17T09:30:04.017Z,27.35
2023-04-17T09:32:31.690Z,32.42
2023-04-17T09:34:59.682Z,27.63
2023-04-17T09:37:27.190Z,29.48
2023-04-17T09:40:04.138Z,24.15
2023-04-17T09:42:30.587Z,28.17
2023-04-17T09:44:57.796Z,26.10
2023-04-17T09:47:24.237Z,26.42
2023-04-17T09:49:55.789Z,26.63
2023-04-17T09:52:23.543Z,33.42
2023-04-17T09:54:53.887Z,25.80
2023-04-17T09:57:21.078Z,25.45
2023-04-17T09:59:50.501Z,29.17
2023-04-17T10:02:18.024Z,28.25
2023-04-17T10:04:45.492Z,27.67
2023-04-17T10:07:14.057Z,30.27
2023-04-17T10:09:41.761Z,27.67
2023-04-17T10:12:16.965Z,27.35
2023-04-17T10:14:46.538Z,27.10
2023-04-17T10:17:28.663Z,31.70
2023-04-17T10:19:55.843Z,27.83
2023-04-17T10:22:23.978Z,32.35
2023-04-17T10:25:13.145Z,33.95
2023-04-17T10:27:42.687Z,26.08
2023-04-17T10:30:10.533Z,32.05
2023-04-17T10:32:36.912Z,38.28
2023-04-17T10:35:19.271Z,33.90
2023-04-17T10:37:51.444Z,27.85
2023-04-17T10:40:21.233Z,33.10
2023-04-17T10:43:03.863Z,28.67
2023-04-17T10:45:49.168Z,28.25
2023-04-17T10:48:33.359Z,31.10
2023-04-17T10:51:00.636Z,28.63
2023-04-17T10:53:43.444Z,28.63
2023-04-17T10:56:11.022Z,32.45
2023-04-17T10:58:38.464Z,25.35
2023-04-17T11:01:09.168Z,26.70
2023-04-17T11:03:37.354Z,31.98
2023-04-17T11:06:04.178Z,29.50
2023-04-17T11:08:30.885Z,25.48
2023-04-17T11:10:57.516Z,29.88
2023-04-17T11:13:23.931Z,35.90
2023-04-17T11:15:50.660Z,28.08
2023-04-17T11:18:17.052Z,31.65
2023-04-17T11:20:43.484Z,25.33
2023-04-17T11:23:09.920Z,24.88
2023-04-17T11:25:37.819Z,22.83
2023-04-17T11:28:05.673Z,29.38
2023-04-17T11:30:33.112Z,26.77
2023-04-17T11:33:03.730Z,20.65
2023-04-17T11:35:30.364Z,22.48
2023-04-17T11:38:11.218Z,22.75
2023-04-17T11:40:45.004Z,19.73
2023-04-17T11:43:11.724Z,18.45
2023-04-17T11:45:39.437Z,29.98
2023-04-17T11:48:06.048Z,19.58
2023-04-17T11:50:32.772Z,23.85
2023-04-17T11:53:02.708Z,23.77
2023-04-17T11:55:32.035Z,22.83
2023-04-17T11:57:59.633Z,22.30
2023-04-17T12:00:29.962Z,22.83
2023-04-17T12:02:57.564Z,19.83
2023-04-17T12:05:24.888Z,20.50
2023-04-17T12:08:01.858Z,20.83
2023-04-17T12:10:37.976Z,21.25
2023-04-17T12:13:04.480Z,16.77
2023-04-17T12:15:31.021Z,20.30
2023-04-17T12:17:57.579Z,23.02
2023-04-17T12:20:26.030Z,21.15
2023-04-17T12:22:53.123Z,14.68
2023-04-17T12:25:19.491Z,17.90
2023-04-17T12:27:48.819Z,16.38
2023-04-17T12:30:16.011Z,18.45
2023-04-17T12:32:45.808Z,17.77
2023-04-17T12:35:12.128Z,18.23
2023-04-17T12:37:38.460Z,18.15
2023-04-17T12:40:05.926Z,17.10
2023-04-17T12:42:39.294Z,15.25
2023-04-17T12:45:13.187Z,19.45
2023-04-17T12:47:39.696Z,18.92
2023-04-17T12:50:06.888Z,19.80
2023-04-17T12:52:33.255Z,13.27
2023-04-17T12:55:00.116Z,19.90
2023-04-17T12:57:27.185Z,12.32
2023-04-17T12:59:53.787Z,15.07
2023-04-17T13:02:21.341Z,14.63
2023-04-17T13:04:47.781Z,15.80
2023-04-17T13:07:14.266Z,18.35
2023-04-17T13:09:40.861Z,20.73
2023-04-17T13:12:07.336Z,15.10
2023-04-17T13:14:33.712Z,17.25
2023-04-17T13:17:00.209Z,21.13
2023-04-17T13:19:26.640Z,15.27
2023-04-17T13:21:53.032Z,14.30
2023-04-17T13:24:19.416Z,18.25
2023-04-17T13:26:45.794Z,13.73
2023-04-17T13:29:12.484Z,16.75
2023-04-17T13:31:39.135Z,14.40
2023-04-17T13:34:06.003Z,14.18
2023-04-17T13:36:32.621Z,15.18
2023-04-17T13:38:58.982Z,12.82
2023-04-17T13:41:25.667Z,12.38
2023-04-17T13:43:52.058Z,12.38
2023-04-17T13:46:18.510Z,12.65
2023-04-17T13:48:45.288Z,16.23
2023-04-17T13:51:11.764Z,14.32
2023-04-17T13:53:38.184Z,14.52
2023-04-17T13:56:04.670Z,16.42
2023-04-17T13:58:31.136Z,14.05
2023-04-17T14:00:57.432Z,16.08
2023-04-17T14:03:23.982Z,15.68
2023-04-17T14:05:50.491Z,17.13
2023-04-17T14:08:16.888Z,18.45
2023-04-17T14:10:43.214Z,13.75
2023-04-17T14:13:09.509Z,18.48
2023-04-17T14:15:36.029Z,12.68
2023-04-17T14:18:02.469Z,15.90
2023-04-17T14:20:29.002Z,10.50
2023-04-17T14:22:55.757Z,17.10
2023-04-17T14:25:22.411Z,18.35
2023-04-17T14:27:49.777Z,13.02
2023-04-17T14:30:16.175Z,17.25
2023-04-17T14:32:42.691Z,15.95
2023-04-17T14:35:09.298Z,14.18
2023-04-17T14:37:35.738Z,18.17
2023-04-17T14:40:02.218Z,11.00
2023-04-17T14:42:28.618Z,16.77
2023-04-17T14:44:54.951Z,15.13
2023-04-17T14:47:21.372Z,16.52
2023-04-17T14:49:47.763Z,15.85
2023-04-17T14:52:14.059Z,18.63
2023-04-17T14:54:40.403Z,15.52
2023-04-17T14:57:07.406Z,17.45
2023-04-17T14:59:33.742Z,17.95
2023-04-17T15:02:00.584Z,19.85
2023-04-17T15:04:27.299Z,18.63
2023-04-17T15:06:53.742Z,22.08
2023-04-17T15:09:20.188Z,18.73
2023-04-17T15:11:47.351Z,17.35
2023-04-17T15:14:13.740Z,18.25
2023-04-17T15:16:40.233Z,18.02
2023-04-17T15:19:06.704Z,18.70
2023-04-17T15:21:33.209Z,22.38
2023-04-17T15:23:59.585Z,30.00
2023-04-17T15:26:27.290Z,18.20
2023-04-17T15:28:53.769Z,16.67
2023-04-17T15:31:20.237Z,17.63
2023-04-17T15:33:47.468Z,19.40
2023-04-17T15:36:13.830Z,23.27
2023-04-17T15:38:40.280Z,18.90
2023-04-17T15:41:07.469Z,18.10
2023-04-17T15:43:34.627Z,13.88
2023-04-17T15:46:03.343Z,17.08
2023-04-17T15:48:29.904Z,16.17
2023-04-17T15:50:56.235Z,15.85
2023-04-17T15:53:22.650Z,16.95
2023-04-17T15:55:49.092Z,18.38
2023-04-17T15:58:16.003Z,14.95
2023-04-17T16:00:42.281Z,21.55
2023-04-17T16:03:08.897Z,15.18
2023-04-17T16:05:35.346Z,14.95
2023-04-17T16:08:01.662Z,14.07
2023-04-17T16:10:28.038Z,12.95
2023-04-17T16:12:54.372Z,13.82
2023-04-17T16:15:20.782Z,12.63
2023-04-17T16:17:48.662Z,14.93
2023-04-17T16:20:15.396Z,15.43
2023-04-17T16:22:41.758Z,13.80
2023-04-17T16:25:08.421Z,14.90
2023-04-17T16:27:34.791Z,14.43
2023-04-17T16:30:02.207Z,15.02
2023-04-17T16:32:28.729Z,13.98
2023-04-17T16:34:55.087Z,19.60
2023-04-17T16:37:21.526Z,17.80
2023-04-17T16:39:48.319Z,16.73
2023-04-17T16:42:14.770Z,17.73
2023-04-17T16:44:41.095Z,17.77
2023-04-17T16:47:13.346Z,13.15
2023-04-17T16:49:40.914Z,20.38
2023-04-17T16:52:07.334Z,16.95
2023-04-17T16:54:33.839Z,16.90
2023-04-17T16:57:00.569Z,17.63
2023-04-17T16:59:26.884Z,15.77
2023-04-17T17:01:53.353Z,14.70
2023-04-17T17:04:19.803Z,15.02
2023-04-17T17:06:46.203Z,17.60
2023-04-17T17:09:12.782Z,18.75
2023-04-17T17:11:39.213Z,19.60
2023-04-17T17:14:05.594Z,14.55
2023-04-17T17:16:31.963Z,15.10
2023-04-17T17:18:58.280Z,23.70
2023-04-17T17:21:24.592Z,16.05
2023-04-17T17:23:51.030Z,17.00
2023-04-17T17:26:17.749Z,15.48
2023-04-17T17:28:50.620Z,14.30
2023-04-17T17:31:17.438Z,15.73
2023-04-17T17:33:44.701Z,14.57
2023-04-17T17:36:11.869Z,16.90
2023-04-17T17:38:38.485Z,16.17
2023-04-17T17:41:04.861Z,16.35
2023-04-17T17:43:31.226Z,21.10
2023-04-17T17:45:57.554Z,14.38
2023-04-17T17:48:23.952Z,15.00
2023-04-17T17:50:53.105Z,16.05
2023-04-17T17:53:21.401Z,15.95
2023-04-17T17:58:18.525Z,18.90
2023-04-17T18:00:46.396Z,15.80
2023-04-17T18:03:15.848Z,17.92
2023-04-17T18:05:42.840Z,17.23
2023-04-17T18:08:09.215Z,16.02
2023-04-17T18:10:37.166Z,18.48
2023-04-17T18:13:04.944Z,21.55
2023-04-17T18:15:31.540Z,16.13
2023-04-17T18:17:58.226Z,19.20
2023-04-17T18:20:24.602Z,18.05
2023-04-17T18:22:52.102Z,21.58
2023-04-17T18:25:19.747Z,16.42
2023-04-17T18:27:47.110Z,17.08
2023-04-17T18:30:14.371Z,19.90
2023-04-17T18:32:41.976Z,21.73
2023-04-17T18:35:08.998Z,18.25
2023-04-17T18:37:35.445Z,19.42
2023-04-17T18:40:03.185Z,19.45
2023-04-17T18:42:29.566Z,19.15
2023-04-17T18:44:55.933Z,18.77
2023-04-17T18:47:23.234Z,23.35
2023-04-17T18:49:51.887Z,26.50
2023-04-17T18:52:18.781Z,20.95
2023-04-17T18:54:45.647Z,24.20
2023-04-17T18:57:12.050Z,20.67
2023-04-17T18:59:38.533Z,19.95
2023-04-17T19:02:04.871Z,24.20
2023-04-17T19:04:31.232Z,20.52
2023-04-17T19:07:04.157Z,19.15
2023-04-17T19:09:31.265Z,22.02
2023-04-17T19:12:00.114Z,25.30
2023-04-17T19:14:26.518Z,22.58
2023-04-17T19:16:53.307Z,23.80
2023-04-17T19:19:29.074Z,19.30
2023-04-17T19:22:01.161Z,22.45
2023-04-17T19:24:28.490Z,19.90
2023-04-17T19:26:59.240Z,18.88
2023-04-17T19:29:26.772Z,21.77
2023-04-17T19:31:53.114Z,18.90
2023-04-17T19:34:21.602Z,17.63
2023-04-17T19:36:47.952Z,21.92
2023-04-17T19:39:15.003Z,18.17
2023-04-17T19:41:46.242Z,17.30
2023-04-17T19:44:14.271Z,21.65
2023-04-17T19:46:41.090Z,20.63
2023-04-17T19:49:13.886Z,16.60
2023-04-17T19:51:40.606Z,15.95
2023-04-17T19:54:07.093Z,16.58
2023-04-17T19:56:33.490Z,15.82
2023-04-17T19:59:02.968Z,16.55
2023-04-17T20:01:30.063Z,15.70
2023-04-17T20:03:59.274Z,18.05
2023-04-17T20:06:26.722Z,16.02
2023-04-17T20:08:56.358Z,18.23
2023-04-17T20:11:23.564Z,81.05
2023-04-17T20:13:49.929Z,146.77
2023-04-17T20:16:16.489Z,43.10
2023-04-17T20:18:43.420Z,20.92
2023-04-17T20:21:09.766Z,16.42
2023-04-17T20:23:36.117Z,15.68
2023-04-17T20:26:03.517Z,18.27
2023-04-17T20:28:30.053Z,16.92
2023-04-17T20:30:56.466Z,16.38
2023-04-17T20:33:22.905Z,16.95
2023-04-17T20:35:50.777Z,17.30
2023-04-17T20:38:17.226Z,19.67
2023-04-17T20:40:43.589Z,15.52
2023-04-17T20:43:09.964Z,14.70
2023-04-17T20:45:36.376Z,16.98
2023-04-17T20:48:02.882Z,15.50
2023-04-17T20:50:29.262Z,15.85
2023-04-17T20:52:55.642Z,22.73
2023-04-17T20:55:22.069Z,19.05
2023-04-17T20:57:51.174Z,17.65
2023-04-17T21:00:17.605Z,18.90
2023-04-17T21:02:44.708Z,16.10
2023-04-17T21:05:11.118Z,14.88
2023-04-17T21:07:37.862Z,31.33
2023-04-17T21:10:05.670Z,19.83
2023-04-17T21:12:35.393Z,20.20
2023-04-17T21:15:02.428Z,20.33
2023-04-17T21:17:28.830Z,28.23
2023-04-17T21:19:58.048Z,16.25
2023-04-17T21:22:26.519Z,19.48
2023-04-17T21:24:52.992Z,19.30
2023-04-17T21:27:19.328Z,19.05
2023-04-17T21:29:45.673Z,17.27
2023-04-17T21:32:12.064Z,20.13
2023-04-17T21:34:38.477Z,17.85
2023-04-17T21:37:05.031Z,18.65
2023-04-17T21:39:33.032Z,17.35
2023-04-17T21:41:59.739Z,17.95
2023-04-17T21:44:26.147Z,22.77
2023-04-17T21:46:52.888Z,18.15
2023-04-17T21:49:19.646Z,18.27
2023-04-17T21:51:46.008Z,24.73
2023-04-17T21:54:12.600Z,21.02
2023-04-17T21:56:39.063Z,23.65
2023-04-17T21:59:05.734Z,20.00
2023-04-17T22:01:32.195Z,20.80
2023-04-17T22:03:58.699Z,18.98
2023-04-17T22:06:25.151Z,22.38
2023-04-17T22:08:51.501Z,23.35
2023-04-17T22:11:17.860Z,19.98
2023-04-17T22:13:44.934Z,26.45
2023-04-17T22:16:11.276Z,25.17
2023-04-17T22:18:37.659Z,23.20
2023-04-17T22:21:22.683Z,20.83
2023-04-17T22:30:33.877Z,23.25
2023-04-17T22:33:37.863Z,27.85
2023-04-17T22:36:41.580Z,21.35
2023-04-17T22:39:08.152Z,23.85
2023-04-17T22:42:11.528Z,29.23
2023-04-17T22:45:15.423Z,20.27
2023-04-17T22:48:19.369Z,29.05
2023-04-17T22:51:04.306Z,23.35
2023-04-17T22:54:26.912Z,20.00
2023-04-17T22:57:49.879Z,20.13
2023-04-17T23:00:17.124Z,23.00
2023-04-17T23:03:21.108Z,24.23
2023-04-17T23:06:07.411Z,25.10
2023-04-17T23:08:52.496Z,20.38
2023-04-17T23:11:18.851Z,23.70
2023-04-17T23:13:45.404Z,30.27
2023-04-17T23:16:11.844Z,27.45
2023-04-17T23:18:38.220Z,24.92
2023-04-17T23:21:04.799Z,29.08
2023-04-17T23:23:31.150Z,23.02
2023-04-17T23:25:57.490Z,27.83
2023-04-17T23:28:30.256Z,21.05
2023-04-17T23:30:57.494Z,23.15
2023-04-17T23:33:24.265Z,22.52
2023-04-17T23:35:50.673Z,24.90
2023-04-17T23:38:17.059Z,25.13
2023-04-17T23:40:43.472Z,18.80
2023-04-17T23:43:09.811Z,26.95
2023-04-17T23:45:36.183Z,17.05
2023-04-17T23:48:02.654Z,21.23
2023-04-17T23:50:29.030Z,18.55
2023-04-17T23:52:55.451Z,20.98
2023-04-17T23:55:22.430Z,17.20
2023-04-17T23:57:48.731Z,15.00
